sensor_id;sensor_type;location;lat;lon;timestamp;temperature;humidity
909;DHT22;441;51.192;6.788;2022-12-18T00:02:01;18.50;45.80
909;DHT22;441;51.192;6.788;2022-12-18T00:04:29;18.50;45.80
909;DHT22;441;51.192;6.788;2022-12-18T00:06:56;18.40;45.70
909;DHT22;441;51.192;6.788;2022-12-18T00:09:24;18.40;45.70
909;DHT22;441;51.192;6.788;2022-12-18T00:11:51;18.40;45.60
909;DHT22;441;51.192;6.788;2022-12-18T00:14:18;18.40;45.60
909;DHT22;441;51.192;6.788;2022-12-18T00:16:46;18.40;45.60
909;DHT22;441;51.192;6.788;2022-12-18T00:19:14;18.40;45.60
909;DHT22;441;51.192;6.788;2022-12-18T00:21:42;18.30;46.10
909;DHT22;441;51.192;6.788;2022-12-18T00:24:10;18.30;45.60
909;DHT22;441;51.192;6.788;2022-12-18T00:26:38;18.30;46.10
909;DHT22;441;51.192;6.788;2022-12-18T00:29:07;18.30;45.50
909;DHT22;441;51.192;6.788;2022-12-18T00:31:34;18.30;45.50
909;DHT22;441;51.192;6.788;2022-12-18T00:34:03;18.20;45.40
909;DHT22;441;51.192;6.788;2022-12-18T00:36:31;18.20;45.50
909;DHT22;441;51.192;6.788;2022-12-18T00:39:00;18.20;45.50
909;DHT22;441;51.192;6.788;2022-12-18T00:41:27;18.20;45.50
909;DHT22;441;51.192;6.788;2022-12-18T00:44:13;18.20;45.50
909;DHT22;441;51.192;6.788;2022-12-18T00:46:41;18.20;45.50
909;DHT22;441;51.192;6.788;2022-12-18T00:49:09;18.10;45.40
909;DHT22;441;51.192;6.788;2022-12-18T00:51:36;18.10;45.40
909;DHT22;441;51.192;6.788;2022-12-18T00:54:03;18.10;45.40
909;DHT22;441;51.192;6.788;2022-12-18T00:56:30;18.10;45.40
909;DHT22;441;51.192;6.788;2022-12-18T00:58:57;18.10;45.40
909;DHT22;441;51.192;6.788;2022-12-18T01:01:24;18.10;45.40
909;DHT22;441;51.192;6.788;2022-12-18T01:03:50;18.00;45.40
909;DHT22;441;51.192;6.788;2022-12-18T01:06:19;18.00;45.30
909;DHT22;441;51.192;6.788;2022-12-18T01:08:45;18.00;45.40
909;DHT22;441;51.192;6.788;2022-12-18T01:11:14;17.90;45.40
909;DHT22;441;51.192;6.788;2022-12-18T01:13:42;17.90;45.40
909;DHT22;441;51.192;6.788;2022-12-18T01:16:11;17.90;45.40
909;DHT22;441;51.192;6.788;2022-12-18T01:18:38;17.90;45.40
909;DHT22;441;51.192;6.788;2022-12-18T01:21:06;17.90;45.50
909;DHT22;441;51.192;6.788;2022-12-18T01:23:35;17.80;45.50
909;DHT22;441;51.192;6.788;2022-12-18T01:26:05;17.90;45.50
909;DHT22;441;51.192;6.788;2022-12-18T01:28:32;17.80;45.50
909;DHT22;441;51.192;6.788;2022-12-18T01:31:10;17.80;45.50
909;DHT22;441;51.192;6.788;2022-12-18T01:33:37;17.80;45.60
909;DHT22;441;51.192;6.788;2022-12-18T01:36:04;17.70;45.50
909;DHT22;441;51.192;6.788;2022-12-18T01:38:31;17.70;45.60
909;DHT22;441;51.192;6.788;2022-12-18T01:41:00;17.70;45.60
909;DHT22;441;51.192;6.788;2022-12-18T01:43:42;17.70;45.60
909;DHT22;441;51.192;6.788;2022-12-18T01:46:08;17.70;45.60
909;DHT22;441;51.192;6.788;2022-12-18T01:48:36;17.70;45.60
909;DHT22;441;51.192;6.788;2022-12-18T01:51:03;17.60;45.60
909;DHT22;441;51.192;6.788;2022-12-18T01:53:30;17.60;45.60
909;DHT22;441;51.192;6.788;2022-12-18T01:55:59;17.60;45.60
909;DHT22;441;51.192;6.788;2022-12-18T01:58:30;17.60;45.70
909;DHT22;441;51.192;6.788;2022-12-18T02:00:59;17.60;45.50
909;DHT22;441;51.192;6.788;2022-12-18T02:03:26;17.50;45.40
909;DHT22;441;51.192;6.788;2022-12-18T02:05:59;17.60;45.50
909;DHT22;441;51.192;6.788;2022-12-18T02:08:32;17.50;45.40
909;DHT22;441;51.192;6.788;2022-12-18T02:11:07;17.50;45.40
909;DHT22;441;51.192;6.788;2022-12-18T02:13:40;17.50;45.30
909;DHT22;441;51.192;6.788;2022-12-18T02:16:16;17.50;45.30
909;DHT22;441;51.192;6.788;2022-12-18T02:18:48;17.50;45.30
909;DHT22;441;51.192;6.788;2022-12-18T02:21:23;17.50;45.30
909;DHT22;441;51.192;6.788;2022-12-18T02:23:56;17.50;45.30
909;DHT22;441;51.192;6.788;2022-12-18T02:26:31;17.50;45.30
909;DHT22;441;51.192;6.788;2022-12-18T02:29:03;17.40;45.20
909;DHT22;441;51.192;6.788;2022-12-18T02:31:36;17.50;45.30
909;DHT22;441;51.192;6.788;2022-12-18T02:34:06;17.40;45.10
909;DHT22;441;51.192;6.788;2022-12-18T02:36:35;17.40;45.10
909;DHT22;441;51.192;6.788;2022-12-18T02:39:05;17.40;45.10
909;DHT22;441;51.192;6.788;2022-12-18T02:41:35;17.40;45.10
909;DHT22;441;51.192;6.788;2022-12-18T02:44:08;17.40;45.10
909;DHT22;441;51.192;6.788;2022-12-18T02:46:37;17.40;45.10
909;DHT22;441;51.192;6.788;2022-12-18T02:49:24;17.40;45.10
909;DHT22;441;51.192;6.788;2022-12-18T02:51:56;17.30;45.00
909;DHT22;441;51.192;6.788;2022-12-18T02:54:38;17.30;45.00
909;DHT22;441;51.192;6.788;2022-12-18T02:57:13;17.30;45.00
909;DHT22;441;51.192;6.788;2022-12-18T02:59:47;17.30;45.10
909;DHT22;441;51.192;6.788;2022-12-18T03:02:20;17.30;45.10
909;DHT22;441;51.192;6.788;2022-12-18T03:04:50;17.30;45.10
909;DHT22;441;51.192;6.788;2022-12-18T03:07:23;17.30;45.10
909;DHT22;441;51.192;6.788;2022-12-18T03:09:52;17.30;45.10
909;DHT22;441;51.192;6.788;2022-12-18T03:12:26;17.30;45.10
909;DHT22;441;51.192;6.788;2022-12-18T03:14:57;17.30;45.20
909;DHT22;441;51.192;6.788;2022-12-18T03:17:28;17.20;45.10
909;DHT22;441;51.192;6.788;2022-12-18T03:19:59;17.30;45.80
909;DHT22;441;51.192;6.788;2022-12-18T03:22:30;17.20;45.10
909;DHT22;441;51.192;6.788;2022-12-18T03:25:00;17.20;45.10
909;DHT22;441;51.192;6.788;2022-12-18T03:27:31;17.20;45.20
909;DHT22;441;51.192;6.788;2022-12-18T03:30:03;17.20;45.30
909;DHT22;441;51.192;6.788;2022-12-18T03:32:38;17.20;45.20
909;DHT22;441;51.192;6.788;2022-12-18T03:35:07;17.20;45.20
909;DHT22;441;51.192;6.788;2022-12-18T03:37:35;17.10;45.20
909;DHT22;441;51.192;6.788;2022-12-18T03:40:02;17.10;45.20
909;DHT22;441;51.192;6.788;2022-12-18T03:42:35;17.10;45.20
909;DHT22;441;51.192;6.788;2022-12-18T03:45:09;17.10;45.20
909;DHT22;441;51.192;6.788;2022-12-18T03:47:41;17.10;45.20
909;DHT22;441;51.192;6.788;2022-12-18T03:50:14;17.10;45.20
909;DHT22;441;51.192;6.788;2022-12-18T03:52:48;17.00;45.00
909;DHT22;441;51.192;6.788;2022-12-18T03:55:17;17.00;45.00
909;DHT22;441;51.192;6.788;2022-12-18T03:57:47;17.10;45.20
909;DHT22;441;51.192;6.788;2022-12-18T04:00:17;17.00;45.10
909;DHT22;441;51.192;6.788;2022-12-18T04:02:47;17.00;45.10
909;DHT22;441;51.192;6.788;2022-12-18T04:05:15;17.00;45.00
909;DHT22;441;51.192;6.788;2022-12-18T04:07:45;17.00;45.00
909;DHT22;441;51.192;6.788;2022-12-18T04:10:14;17.00;45.00
909;DHT22;441;51.192;6.788;2022-12-18T04:12:41;17.00;45.00
909;DHT22;441;51.192;6.788;2022-12-18T04:15:11;17.00;45.00
909;DHT22;441;51.192;6.788;2022-12-18T04:17:39;17.00;45.00
909;DHT22;441;51.192;6.788;2022-12-18T04:20:09;17.00;45.00
909;DHT22;441;51.192;6.788;2022-12-18T04:22:36;17.00;45.00
909;DHT22;441;51.192;6.788;2022-12-18T04:25:03;17.00;45.00
909;DHT22;441;51.192;6.788;2022-12-18T04:27:30;17.00;45.00
909;DHT22;441;51.192;6.788;2022-12-18T04:29:57;16.90;45.00
909;DHT22;441;51.192;6.788;2022-12-18T04:32:25;16.90;45.00
909;DHT22;441;51.192;6.788;2022-12-18T04:34:52;17.00;45.00
909;DHT22;441;51.192;6.788;2022-12-18T04:37:18;16.90;45.00
909;DHT22;441;51.192;6.788;2022-12-18T04:39:45;16.90;45.00
909;DHT22;441;51.192;6.788;2022-12-18T04:42:12;16.90;45.00
909;DHT22;441;51.192;6.788;2022-12-18T04:44:39;16.90;45.10
909;DHT22;441;51.192;6.788;2022-12-18T04:47:06;16.90;45.00
909;DHT22;441;51.192;6.788;2022-12-18T04:49:34;16.90;45.10
909;DHT22;441;51.192;6.788;2022-12-18T04:52:02;16.90;45.10
909;DHT22;441;51.192;6.788;2022-12-18T04:54:29;16.90;45.10
909;DHT22;441;51.192;6.788;2022-12-18T04:56:56;16.90;45.10
909;DHT22;441;51.192;6.788;2022-12-18T04:59:22;16.80;45.00
909;DHT22;441;51.192;6.788;2022-12-18T05:01:49;16.80;45.00
909;DHT22;441;51.192;6.788;2022-12-18T05:04:16;16.80;45.00
909;DHT22;441;51.192;6.788;2022-12-18T05:06:44;16.80;45.00
909;DHT22;441;51.192;6.788;2022-12-18T05:09:11;16.80;45.00
909;DHT22;441;51.192;6.788;2022-12-18T05:11:38;16.80;45.00
909;DHT22;441;51.192;6.788;2022-12-18T05:14:05;16.80;45.00
909;DHT22;441;51.192;6.788;2022-12-18T05:16:31;16.80;45.10
909;DHT22;441;51.192;6.788;2022-12-18T05:18:59;16.80;45.00
909;DHT22;441;51.192;6.788;2022-12-18T05:21:26;16.80;45.10
909;DHT22;441;51.192;6.788;2022-12-18T05:23:54;16.80;45.10
909;DHT22;441;51.192;6.788;2022-12-18T05:26:21;16.70;44.90
909;DHT22;441;51.192;6.788;2022-12-18T05:28:47;16.70;45.00
909;DHT22;441;51.192;6.788;2022-12-18T05:31:14;16.70;44.90
909;DHT22;441;51.192;6.788;2022-12-18T05:33:41;16.70;44.90
909;DHT22;441;51.192;6.788;2022-12-18T05:36:09;16.70;44.90
909;DHT22;441;51.192;6.788;2022-12-18T05:38:38;16.70;44.90
909;DHT22;441;51.192;6.788;2022-12-18T05:41:07;16.70;44.80
909;DHT22;441;51.192;6.788;2022-12-18T05:43:35;16.70;44.80
909;DHT22;441;51.192;6.788;2022-12-18T05:46:04;16.70;44.80
909;DHT22;441;51.192;6.788;2022-12-18T05:48:32;16.70;44.70
909;DHT22;441;51.192;6.788;2022-12-18T05:51:04;16.60;44.70
909;DHT22;441;51.192;6.788;2022-12-18T05:53:32;16.60;44.90
909;DHT22;441;51.192;6.788;2022-12-18T05:56:00;16.60;44.90
909;DHT22;441;51.192;6.788;2022-12-18T05:58:30;16.60;45.00
909;DHT22;441;51.192;6.788;2022-12-18T06:00:57;16.60;45.00
909;DHT22;441;51.192;6.788;2022-12-18T06:03:24;16.60;45.10
909;DHT22;441;51.192;6.788;2022-12-18T06:05:51;16.60;45.10
909;DHT22;441;51.192;6.788;2022-12-18T06:08:18;16.60;45.00
909;DHT22;441;51.192;6.788;2022-12-18T06:10:50;16.60;45.00
909;DHT22;441;51.192;6.788;2022-12-18T06:13:18;16.60;45.00
909;DHT22;441;51.192;6.788;2022-12-18T06:15:46;16.60;45.00
909;DHT22;441;51.192;6.788;2022-12-18T06:18:13;16.60;44.90
909;DHT22;441;51.192;6.788;2022-12-18T06:20:40;16.60;44.90
909;DHT22;441;51.192;6.788;2022-12-18T06:23:07;16.60;44.90
909;DHT22;441;51.192;6.788;2022-12-18T06:25:37;16.60;44.90
909;DHT22;441;51.192;6.788;2022-12-18T06:28:04;16.50;44.90
909;DHT22;441;51.192;6.788;2022-12-18T06:30:31;16.50;44.80
909;DHT22;441;51.192;6.788;2022-12-18T06:33:00;16.50;44.90
909;DHT22;441;51.192;6.788;2022-12-18T06:35:26;16.50;44.90
909;DHT22;441;51.192;6.788;2022-12-18T06:37:53;16.50;44.90
909;DHT22;441;51.192;6.788;2022-12-18T06:40:20;16.50;44.90
909;DHT22;441;51.192;6.788;2022-12-18T06:42:47;16.50;44.90
909;DHT22;441;51.192;6.788;2022-12-18T06:45:15;16.50;44.80
909;DHT22;441;51.192;6.788;2022-12-18T06:47:42;16.40;44.80
909;DHT22;441;51.192;6.788;2022-12-18T06:50:11;16.40;44.80
909;DHT22;441;51.192;6.788;2022-12-18T06:52:38;16.40;44.80
909;DHT22;441;51.192;6.788;2022-12-18T06:55:10;16.40;44.80
909;DHT22;441;51.192;6.788;2022-12-18T06:57:37;16.40;44.80
909;DHT22;441;51.192;6.788;2022-12-18T07:00:06;16.40;44.90
909;DHT22;441;51.192;6.788;2022-12-18T07:02:33;16.40;44.80
909;DHT22;441;51.192;6.788;2022-12-18T07:05:00;16.40;44.90
909;DHT22;441;51.192;6.788;2022-12-18T07:07:29;16.40;44.90
909;DHT22;441;51.192;6.788;2022-12-18T07:09:55;16.30;44.70
909;DHT22;441;51.192;6.788;2022-12-18T07:12:22;16.30;44.80
909;DHT22;441;51.192;6.788;2022-12-18T07:14:49;16.40;44.80
909;DHT22;441;51.192;6.788;2022-12-18T07:17:16;16.30;44.70
909;DHT22;441;51.192;6.788;2022-12-18T07:19:43;16.30;44.70
909;DHT22;441;51.192;6.788;2022-12-18T07:22:10;16.30;44.70
909;DHT22;441;51.192;6.788;2022-12-18T07:24:38;16.40;44.80
909;DHT22;441;51.192;6.788;2022-12-18T07:27:05;16.30;44.60
909;DHT22;441;51.192;6.788;2022-12-18T07:29:32;16.40;44.70
909;DHT22;441;51.192;6.788;2022-12-18T07:31:59;16.30;44.60
909;DHT22;441;51.192;6.788;2022-12-18T07:34:26;16.30;44.50
909;DHT22;441;51.192;6.788;2022-12-18T07:36:53;16.30;44.40
909;DHT22;441;51.192;6.788;2022-12-18T07:39:19;16.30;44.50
909;DHT22;441;51.192;6.788;2022-12-18T07:41:48;16.30;44.60
909;DHT22;441;51.192;6.788;2022-12-18T07:44:34;16.30;44.70
909;DHT22;441;51.192;6.788;2022-12-18T07:47:01;16.30;44.70
909;DHT22;441;51.192;6.788;2022-12-18T07:49:28;16.30;44.70
909;DHT22;441;51.192;6.788;2022-12-18T07:51:56;16.30;44.70
909;DHT22;441;51.192;6.788;2022-12-18T07:54:24;16.30;44.60
909;DHT22;441;51.192;6.788;2022-12-18T07:56:52;16.30;44.70
909;DHT22;441;51.192;6.788;2022-12-18T07:59:19;16.30;44.60
909;DHT22;441;51.192;6.788;2022-12-18T08:01:46;16.30;44.70
909;DHT22;441;51.192;6.788;2022-12-18T08:04:13;16.30;44.60
909;DHT22;441;51.192;6.788;2022-12-18T08:06:40;16.30;44.70
909;DHT22;441;51.192;6.788;2022-12-18T08:09:07;16.30;44.60
909;DHT22;441;51.192;6.788;2022-12-18T08:11:34;16.30;44.70
909;DHT22;441;51.192;6.788;2022-12-18T08:14:02;16.30;44.70
909;DHT22;441;51.192;6.788;2022-12-18T08:16:29;16.30;44.70
909;DHT22;441;51.192;6.788;2022-12-18T08:18:56;16.30;44.70
909;DHT22;441;51.192;6.788;2022-12-18T08:21:25;16.20;44.60
909;DHT22;441;51.192;6.788;2022-12-18T08:23:53;16.30;44.70
909;DHT22;441;51.192;6.788;2022-12-18T08:26:21;16.20;44.50
909;DHT22;441;51.192;6.788;2022-12-18T08:28:48;16.20;44.50
909;DHT22;441;51.192;6.788;2022-12-18T08:31:17;16.20;44.60
909;DHT22;441;51.192;6.788;2022-12-18T08:33:44;16.20;44.60
909;DHT22;441;51.192;6.788;2022-12-18T08:36:11;16.20;44.60
909;DHT22;441;51.192;6.788;2022-12-18T08:38:38;16.20;44.60
909;DHT22;441;51.192;6.788;2022-12-18T08:41:07;16.20;44.60
909;DHT22;441;51.192;6.788;2022-12-18T08:43:34;16.20;44.60
909;DHT22;441;51.192;6.788;2022-12-18T08:46:21;16.20;44.60
909;DHT22;441;51.192;6.788;2022-12-18T08:48:49;16.20;44.60
909;DHT22;441;51.192;6.788;2022-12-18T08:51:17;16.10;44.50
909;DHT22;441;51.192;6.788;2022-12-18T08:53:44;16.10;44.50
909;DHT22;441;51.192;6.788;2022-12-18T08:56:11;16.10;44.50
909;DHT22;441;51.192;6.788;2022-12-18T08:58:39;16.10;44.50
909;DHT22;441;51.192;6.788;2022-12-18T09:01:08;16.10;44.60
909;DHT22;441;51.192;6.788;2022-12-18T09:03:37;16.10;44.60
909;DHT22;441;51.192;6.788;2022-12-18T09:06:04;16.10;44.60
909;DHT22;441;51.192;6.788;2022-12-18T09:08:31;16.10;44.60
909;DHT22;441;51.192;6.788;2022-12-18T09:10:58;16.10;44.60
909;DHT22;441;51.192;6.788;2022-12-18T09:13:25;16.10;44.70
909;DHT22;441;51.192;6.788;2022-12-18T09:15:53;16.10;44.60
909;DHT22;441;51.192;6.788;2022-12-18T09:18:24;16.20;44.60
909;DHT22;441;51.192;6.788;2022-12-18T09:20:57;16.30;45.80
909;DHT22;441;51.192;6.788;2022-12-18T09:23:30;16.40;46.40
909;DHT22;441;51.192;6.788;2022-12-18T09:26:02;16.50;46.20
909;DHT22;441;51.192;6.788;2022-12-18T09:28:35;16.70;46.40
909;DHT22;441;51.192;6.788;2022-12-18T09:31:10;16.90;46.40
909;DHT22;441;51.192;6.788;2022-12-18T09:33:40;17.10;46.10
909;DHT22;441;51.192;6.788;2022-12-18T09:36:14;17.30;47.00
909;DHT22;441;51.192;6.788;2022-12-18T09:38:46;17.50;47.90
909;DHT22;441;51.192;6.788;2022-12-18T09:41:28;17.70;47.60
909;DHT22;441;51.192;6.788;2022-12-18T09:44:01;17.90;47.10
909;DHT22;441;51.192;6.788;2022-12-18T09:46:31;18.00;46.60
909;DHT22;441;51.192;6.788;2022-12-18T09:49:00;18.10;45.80
909;DHT22;441;51.192;6.788;2022-12-18T09:51:35;18.20;45.70
909;DHT22;441;51.192;6.788;2022-12-18T09:54:05;18.30;46.10
909;DHT22;441;51.192;6.788;2022-12-18T09:56:37;18.50;45.70
909;DHT22;441;51.192;6.788;2022-12-18T09:59:05;18.60;45.60
909;DHT22;441;51.192;6.788;2022-12-18T10:01:33;18.70;44.90
909;DHT22;441;51.192;6.788;2022-12-18T10:04:00;18.80;44.40
909;DHT22;441;51.192;6.788;2022-12-18T10:06:39;18.80;43.90
909;DHT22;441;51.192;6.788;2022-12-18T10:09:15;19.00;44.40
909;DHT22;441;51.192;6.788;2022-12-18T10:11:51;19.20;44.40
909;DHT22;441;51.192;6.788;2022-12-18T10:14:23;19.30;43.70
909;DHT22;441;51.192;6.788;2022-12-18T10:16:59;19.40;43.60
909;DHT22;441;51.192;6.788;2022-12-18T10:19:40;19.40;43.20
909;DHT22;441;51.192;6.788;2022-12-18T10:22:22;19.60;43.10
909;DHT22;441;51.192;6.788;2022-12-18T10:24:55;19.70;43.00
909;DHT22;441;51.192;6.788;2022-12-18T10:27:25;19.80;42.80
909;DHT22;441;51.192;6.788;2022-12-18T10:29:52;19.80;42.80
909;DHT22;441;51.192;6.788;2022-12-18T10:32:21;20.00;42.90
909;DHT22;441;51.192;6.788;2022-12-18T10:34:49;20.00;42.40
909;DHT22;441;51.192;6.788;2022-12-18T10:37:20;20.10;42.50
909;DHT22;441;51.192;6.788;2022-12-18T10:40:06;20.00;41.90
909;DHT22;441;51.192;6.788;2022-12-18T10:42:34;20.10;41.90
909;DHT22;441;51.192;6.788;2022-12-18T10:45:02;20.10;42.00
909;DHT22;441;51.192;6.788;2022-12-18T10:47:30;20.20;41.90
909;DHT22;441;51.192;6.788;2022-12-18T10:49:57;20.10;41.60
909;DHT22;441;51.192;6.788;2022-12-18T10:52:25;20.00;40.70
909;DHT22;441;51.192;6.788;2022-12-18T10:54:55;19.90;39.60
909;DHT22;441;51.192;6.788;2022-12-18T10:57:33;19.90;40.40
909;DHT22;441;51.192;6.788;2022-12-18T11:00:23;19.90;41.40
909;DHT22;441;51.192;6.788;2022-12-18T11:02:50;20.00;40.90
909;DHT22;441;51.192;6.788;2022-12-18T11:05:29;19.90;40.90
909;DHT22;441;51.192;6.788;2022-12-18T11:07:58;20.00;42.30
909;DHT22;441;51.192;6.788;2022-12-18T11:10:29;20.10;41.30
909;DHT22;441;51.192;6.788;2022-12-18T11:13:09;20.10;41.60
909;DHT22;441;51.192;6.788;2022-12-18T11:15:36;20.10;41.40
909;DHT22;441;51.192;6.788;2022-12-18T11:18:16;20.20;42.10
909;DHT22;441;51.192;6.788;2022-12-18T11:20:51;20.20;41.30
909;DHT22;441;51.192;6.788;2022-12-18T11:23:21;20.20;41.10
909;DHT22;441;51.192;6.788;2022-12-18T11:25:59;20.20;42.20
909;DHT22;441;51.192;6.788;2022-12-18T11:28:39;20.30;41.90
909;DHT22;441;51.192;6.788;2022-12-18T11:31:16;20.30;42.20
909;DHT22;441;51.192;6.788;2022-12-18T11:33:49;20.40;42.10
909;DHT22;441;51.192;6.788;2022-12-18T11:36:19;20.40;41.20
909;DHT22;441;51.192;6.788;2022-12-18T11:38:49;20.30;41.70
909;DHT22;441;51.192;6.788;2022-12-18T11:41:25;20.30;41.70
909;DHT22;441;51.192;6.788;2022-12-18T11:44:18;20.40;42.20
909;DHT22;441;51.192;6.788;2022-12-18T11:46:52;20.30;42.10
909;DHT22;441;51.192;6.788;2022-12-18T11:49:25;20.40;41.90
909;DHT22;441;51.192;6.788;2022-12-18T11:51:58;20.50;41.60
909;DHT22;441;51.192;6.788;2022-12-18T11:54:26;20.50;41.30
909;DHT22;441;51.192;6.788;2022-12-18T11:56:56;20.60;41.50
909;DHT22;441;51.192;6.788;2022-12-18T11:59:32;20.60;41.20
909;DHT22;441;51.192;6.788;2022-12-18T12:02:14;20.60;41.10
909;DHT22;441;51.192;6.788;2022-12-18T12:04:56;20.70;41.50
909;DHT22;441;51.192;6.788;2022-12-18T12:07:36;20.70;41.30
909;DHT22;441;51.192;6.788;2022-12-18T12:10:16;20.70;41.10
909;DHT22;441;51.192;6.788;2022-12-18T12:12:58;20.70;41.30
909;DHT22;441;51.192;6.788;2022-12-18T12:15:36;20.70;41.90
909;DHT22;441;51.192;6.788;2022-12-18T12:18:13;20.70;42.10
909;DHT22;441;51.192;6.788;2022-12-18T12:20:51;20.60;41.10
909;DHT22;441;51.192;6.788;2022-12-18T12:23:26;20.70;41.80
909;DHT22;441;51.192;6.788;2022-12-18T12:26:01;20.80;41.30
909;DHT22;441;51.192;6.788;2022-12-18T12:28:53;21.00;41.50
909;DHT22;441;51.192;6.788;2022-12-18T12:31:36;21.00;41.40
909;DHT22;441;51.192;6.788;2022-12-18T12:34:15;20.80;40.50
909;DHT22;441;51.192;6.788;2022-12-18T12:36:55;20.70;40.60
909;DHT22;441;51.192;6.788;2022-12-18T12:39:29;20.70;40.90
909;DHT22;441;51.192;6.788;2022-12-18T12:41:58;20.60;41.00
909;DHT22;441;51.192;6.788;2022-12-18T12:44:45;20.70;44.20
909;DHT22;441;51.192;6.788;2022-12-18T12:47:18;20.80;43.00
909;DHT22;441;51.192;6.788;2022-12-18T12:49:47;21.00;42.90
909;DHT22;441;51.192;6.788;2022-12-18T12:52:23;21.10;42.80
909;DHT22;441;51.192;6.788;2022-12-18T12:54:53;21.20;42.50
909;DHT22;441;51.192;6.788;2022-12-18T12:57:30;21.30;41.70
909;DHT22;441;51.192;6.788;2022-12-18T13:00:02;21.40;41.60
909;DHT22;441;51.192;6.788;2022-12-18T13:02:34;21.40;41.60
909;DHT22;441;51.192;6.788;2022-12-18T13:05:06;21.50;41.10
909;DHT22;441;51.192;6.788;2022-12-18T13:07:40;21.50;40.90
909;DHT22;441;51.192;6.788;2022-12-18T13:10:32;21.60;40.90
909;DHT22;441;51.192;6.788;2022-12-18T13:13:02;21.60;40.80
909;DHT22;441;51.192;6.788;2022-12-18T13:15:41;21.70;41.30
909;DHT22;441;51.192;6.788;2022-12-18T13:18:18;21.70;41.00
909;DHT22;441;51.192;6.788;2022-12-18T13:20:47;21.70;41.00
909;DHT22;441;51.192;6.788;2022-12-18T13:23:38;21.70;40.50
909;DHT22;441;51.192;6.788;2022-12-18T13:26:33;21.70;40.40
909;DHT22;441;51.192;6.788;2022-12-18T13:29:03;21.60;40.20
909;DHT22;441;51.192;6.788;2022-12-18T13:34:28;21.70;40.10
909;DHT22;441;51.192;6.788;2022-12-18T13:36:57;21.60;40.00
909;DHT22;441;51.192;6.788;2022-12-18T13:39:44;21.60;40.00
909;DHT22;441;51.192;6.788;2022-12-18T13:42:39;21.60;40.00
909;DHT22;441;51.192;6.788;2022-12-18T13:45:43;21.50;39.80
909;DHT22;441;51.192;6.788;2022-12-18T13:48:22;21.60;40.00
909;DHT22;441;51.192;6.788;2022-12-18T13:50:58;21.50;39.80
909;DHT22;441;51.192;6.788;2022-12-18T13:53:29;21.60;40.00
909;DHT22;441;51.192;6.788;2022-12-18T13:55:57;21.60;40.00
909;DHT22;441;51.192;6.788;2022-12-18T13:58:24;21.70;40.40
909;DHT22;441;51.192;6.788;2022-12-18T14:00:52;21.80;40.10
909;DHT22;441;51.192;6.788;2022-12-18T14:03:21;21.80;39.90
909;DHT22;441;51.192;6.788;2022-12-18T14:05:54;21.80;39.90
909;DHT22;441;51.192;6.788;2022-12-18T14:08:25;21.80;39.60
909;DHT22;441;51.192;6.788;2022-12-18T14:10:53;21.70;39.50
909;DHT22;441;51.192;6.788;2022-12-18T14:13:26;21.70;39.50
909;DHT22;441;51.192;6.788;2022-12-18T14:15:55;21.60;39.40
909;DHT22;441;51.192;6.788;2022-12-18T14:18:25;21.60;39.80
909;DHT22;441;51.192;6.788;2022-12-18T14:20:55;21.60;39.70
909;DHT22;441;51.192;6.788;2022-12-18T14:23:31;21.40;39.20
909;DHT22;441;51.192;6.788;2022-12-18T14:25:59;21.30;39.30
909;DHT22;441;51.192;6.788;2022-12-18T14:28:26;21.20;40.10
909;DHT22;441;51.192;6.788;2022-12-18T14:30:55;21.20;40.60
909;DHT22;441;51.192;6.788;2022-12-18T14:33:24;21.20;40.90
909;DHT22;441;51.192;6.788;2022-12-18T14:35:56;21.20;40.90
909;DHT22;441;51.192;6.788;2022-12-18T14:38:29;21.20;40.90
909;DHT22;441;51.192;6.788;2022-12-18T14:41:00;21.20;41.00
909;DHT22;441;51.192;6.788;2022-12-18T14:43:28;21.10;41.20
909;DHT22;441;51.192;6.788;2022-12-18T14:45:57;21.20;41.60
909;DHT22;441;51.192;6.788;2022-12-18T14:48:35;21.20;43.30
909;DHT22;441;51.192;6.788;2022-12-18T14:51:04;21.20;42.40
909;DHT22;441;51.192;6.788;2022-12-18T14:53:37;21.30;42.80
909;DHT22;441;51.192;6.788;2022-12-18T14:56:15;21.30;42.90
909;DHT22;441;51.192;6.788;2022-12-18T14:58:50;21.40;43.00
909;DHT22;441;51.192;6.788;2022-12-18T15:01:24;21.30;44.30
909;DHT22;441;51.192;6.788;2022-12-18T15:03:52;21.20;46.60
909;DHT22;441;51.192;6.788;2022-12-18T15:06:29;21.30;49.20
909;DHT22;441;51.192;6.788;2022-12-18T15:08:57;21.40;48.60
909;DHT22;441;51.192;6.788;2022-12-18T15:11:26;21.40;46.90
909;DHT22;441;51.192;6.788;2022-12-18T15:13:53;21.40;48.30
909;DHT22;441;51.192;6.788;2022-12-18T15:16:22;21.50;47.50
909;DHT22;441;51.192;6.788;2022-12-18T15:18:48;21.50;47.30
909;DHT22;441;51.192;6.788;2022-12-18T15:21:18;21.60;47.10
909;DHT22;441;51.192;6.788;2022-12-18T15:23:49;21.60;47.60
909;DHT22;441;51.192;6.788;2022-12-18T15:26:18;21.60;46.40
909;DHT22;441;51.192;6.788;2022-12-18T15:28:47;21.60;45.90
909;DHT22;441;51.192;6.788;2022-12-18T15:31:29;21.50;45.60
909;DHT22;441;51.192;6.788;2022-12-18T15:34:13;21.60;46.00
909;DHT22;441;51.192;6.788;2022-12-18T15:36:40;21.60;46.00
909;DHT22;441;51.192;6.788;2022-12-18T15:39:11;21.50;44.80
909;DHT22;441;51.192;6.788;2022-12-18T15:41:38;21.50;44.70
909;DHT22;441;51.192;6.788;2022-12-18T15:44:21;21.50;45.00
909;DHT22;441;51.192;6.788;2022-12-18T15:46:49;21.50;44.70
909;DHT22;441;51.192;6.788;2022-12-18T15:49:16;21.50;44.60
909;DHT22;441;51.192;6.788;2022-12-18T15:51:52;21.60;44.30
909;DHT22;441;51.192;6.788;2022-12-18T15:54:20;21.60;44.10
909;DHT22;441;51.192;6.788;2022-12-18T15:57:09;21.60;44.10
909;DHT22;441;51.192;6.788;2022-12-18T15:59:50;21.50;44.30
909;DHT22;441;51.192;6.788;2022-12-18T16:02:20;21.50;44.50
909;DHT22;441;51.192;6.788;2022-12-18T16:04:49;21.50;45.50
909;DHT22;441;51.192;6.788;2022-12-18T16:07:16;21.60;46.60
909;DHT22;441;51.192;6.788;2022-12-18T16:09:43;21.60;45.80
909;DHT22;441;51.192;6.788;2022-12-18T16:12:15;21.60;45.30
909;DHT22;441;51.192;6.788;2022-12-18T16:14:43;21.60;44.60
909;DHT22;441;51.192;6.788;2022-12-18T16:17:12;21.50;44.00
909;DHT22;441;51.192;6.788;2022-12-18T16:19:42;21.50;43.80
909;DHT22;441;51.192;6.788;2022-12-18T16:22:18;21.50;42.90
909;DHT22;441;51.192;6.788;2022-12-18T16:24:46;21.50;43.00
909;DHT22;441;51.192;6.788;2022-12-18T16:27:13;21.60;43.00
909;DHT22;441;51.192;6.788;2022-12-18T16:29:40;21.50;42.90
909;DHT22;441;51.192;6.788;2022-12-18T16:32:08;21.50;43.10
909;DHT22;441;51.192;6.788;2022-12-18T16:34:36;21.50;43.50
909;DHT22;441;51.192;6.788;2022-12-18T16:37:06;21.50;43.20
909;DHT22;441;51.192;6.788;2022-12-18T16:39:33;21.50;43.20
909;DHT22;441;51.192;6.788;2022-12-18T16:42:01;21.40;43.30
909;DHT22;441;51.192;6.788;2022-12-18T16:44:27;21.30;43.50
909;DHT22;441;51.192;6.788;2022-12-18T16:46:54;21.40;43.70
909;DHT22;441;51.192;6.788;2022-12-18T16:49:27;21.40;43.70
909;DHT22;441;51.192;6.788;2022-12-18T16:51:54;21.40;43.90
909;DHT22;441;51.192;6.788;2022-12-18T16:54:22;21.40;44.10
909;DHT22;441;51.192;6.788;2022-12-18T16:56:50;21.40;44.00
909;DHT22;441;51.192;6.788;2022-12-18T16:59:17;21.30;44.10
909;DHT22;441;51.192;6.788;2022-12-18T17:01:44;21.30;44.10